Masterton, New Zealand
Current Conditions -  °F | °C
As of 7:00 PM on Friday 19 Dec 2014 (Local Time) from NZWN Reporting Station
Broken Clouds Broken Clouds  
Wind Chill: 63°   Ceiling: 700
Heat Index: 63°   Visibility: 6mi
Dew Point: 61°   Wind: 23mph
Humidity: 94%   Direction: 10°N
Pressure: 29.97"   Gusts: NA
Location:  40.96°S, 175.66°E
Report Text: NZWN 190700Z AUTO 01020KT 9999 BKN007/// 17/16 Q1015 NOSIG
Loading
Personal Weather Stations






























Interactive Weather Map New forecast layout! Learn more

10-Day Weather Forecast

Advertisements
Track Severe Weather on mobile